Аэропорт: Рощино. Тюмень

ICAO: USTR

METAR:
2018/05/20 23:00
USTR 202300Z 25003MPS 9999 SCT019CB 13/10 Q1009 R21/CLRD65 NOSIG RMK QFE747/0996
METAR:
2018/05/20 21:00
TAF USTR 201948Z 2021/2121 26006MPS 9999 BKN020CB 
      TEMPO 2021/2103 VRB23MPS 3100 -TSRA SQ BKN011CB 
      BECMG 2103/2104 32007MPS 
      TEMPO 2104/2112 35012MPS 5000 -SHRA BKN015CB